Brilhamar — CUGK3 — position and weather

sailwx.info

Track history (hours):
 
Tides and Currents Weather Stations Pressure Air Temp Water Temp Dewpoint Dewpoint Depression Visibility Wind Speed Wind Dir Waves Ship Positions

Brilhamar

Last reported at 2018-Jul-17 08:37 UTC. Time now 2018-Jul-21 13:49 UTC.
Position N 37°01' W 008°11'.

Length 17 m.

Type: Fishing. MMSI: 263419980.

Date/timePositionNaut miles runAvg speedWind from/ knotsBaromVisibWave heightAir tempDewpointWater temp
2018-Jul-17 08:37N 37°01' W 008°11'0 1.4
2018-Jul-17 08:16N 37°00' W 008°12'0 0.3
2018-Jul-17 08:00N 37°00' W 008°12'0 0.2
2018-Jul-17 07:30N 37°00' W 008°12'0 0.1
2018-Jul-17 06:59N 37°00' W 008°12'3 6.5
2018-Jul-17 06:30N 37°01' W 008°16'0 0.4
2018-Jul-17 05:58N 37°01' W 008°16'0 0.1
2018-Jul-17 05:30N 37°01' W 008°16'0 0.0
2018-Jul-17 04:59N 37°01' W 008°16'1 1.5
2018-Jul-17 04:25N 37°01' W 008°17'4 3.2
2018-Jul-17 03:20N 37°02' W 008°13'2 6.3
2018-Jul-17 02:59N 37°01' W 008°10'2 0.1
2018-Jul-16 08:02N 37°03' W 008°12'0 6.6
2018-Jul-16 07:59N 37°03' W 008°12'3 6.5
2018-Jul-16 07:30N 37°02' W 008°16'1 1.3
2018-Jul-16 07:00N 37°01' W 008°17'0 0.2
2018-Jul-16 06:30N 37°01' W 008°17'0 0.2
2018-Jul-16 06:00N 37°02' W 008°17'0 0.5
2018-Jul-16 05:30N 37°02' W 008°16'1 2.6
2018-Jul-16 05:00N 37°01' W 008°18'1 2.2
2018-Jul-16 04:30N 37°01' W 008°19'0 0.4
2018-Jul-16 04:00N 37°01' W 008°19'1 1.3
2018-Jul-16 03:30N 37°01' W 008°20'0 0.8
2018-Jul-16 03:00N 37°01' W 008°19'0 0.7
2018-Jul-16 02:30N 37°01' W 008°20'1 1.1
2018-Jul-16 02:00N 37°01' W 008°20'3 6.1
2018-Jul-16 01:30N 37°02' W 008°17'3 5.2
2018-Jul-16 01:00N 37°01' W 008°14'3 6.3
2018-Jul-16 00:30N 37°01' W 008°10'  
2018-Jul-13 07:00N 36°59' W 008°07'2 5.0
2018-Jul-13 06:30N 36°56' W 008°07'2 3.7
2018-Jul-13 05:57N 36°55' W 008°10'2 3.7
2018-Jul-13 05:30N 36°54' W 008°08'2 2.7
2018-Jul-13 04:53N 36°55' W 008°10'1 3.1
2018-Jul-13 04:30N 36°56' W 008°09'10 0.4
2018-Jul-12 04:10N 37°01' W 008°20'  
2018-Jul-09 20:15N 36°59' W 008°03'2 6.8
2018-Jul-09 19:57N 37°01' W 008°04'8 0.5
2018-Jul-09 04:03N 37°01' W 008°14'1 3.0
2018-Jul-09 03:45N 37°01' W 008°13'1 3.2
2018-Jul-09 03:27N 37°01' W 008°12'  
Track history (hours):
 
Tides and Currents Weather Stations Pressure Air Temp Water Temp Dewpoint Dewpoint Depression Visibility Wind Speed Wind Dir Waves Ship Positions

Brilhamar

Last reported at 2018-Jul-17 08:37 UTC. Time now 2018-Jul-21 13:49 UTC.
Position N 37°01' W 008°11'.

Length 17 m.

Type: Fishing. MMSI: 263419980.

Date/timePositionNaut miles runAvg speedWind from/ knotsBaromVisibWave heightAir tempDewpointWater temp
2018-Jul-17 08:37N 37°01' W 008°11'0 1.4
2018-Jul-17 08:16N 37°00' W 008°12'0 0.3
2018-Jul-17 08:00N 37°00' W 008°12'0 0.2
2018-Jul-17 07:30N 37°00' W 008°12'0 0.1
2018-Jul-17 06:59N 37°00' W 008°12'3 6.5
2018-Jul-17 06:30N 37°01' W 008°16'0 0.4
2018-Jul-17 05:58N 37°01' W 008°16'0 0.1
2018-Jul-17 05:30N 37°01' W 008°16'0 0.0
2018-Jul-17 04:59N 37°01' W 008°16'1 1.5
2018-Jul-17 04:25N 37°01' W 008°17'4 3.2
2018-Jul-17 03:20N 37°02' W 008°13'2 6.3
2018-Jul-17 02:59N 37°01' W 008°10'2 0.1
2018-Jul-16 08:02N 37°03' W 008°12'0 6.6
2018-Jul-16 07:59N 37°03' W 008°12'3 6.5
2018-Jul-16 07:30N 37°02' W 008°16'1 1.3
2018-Jul-16 07:00N 37°01' W 008°17'0 0.2
2018-Jul-16 06:30N 37°01' W 008°17'0 0.2
2018-Jul-16 06:00N 37°02' W 008°17'0 0.5
2018-Jul-16 05:30N 37°02' W 008°16'1 2.6
2018-Jul-16 05:00N 37°01' W 008°18'1 2.2
2018-Jul-16 04:30N 37°01' W 008°19'0 0.4
2018-Jul-16 04:00N 37°01' W 008°19'1 1.3
2018-Jul-16 03:30N 37°01' W 008°20'0 0.8
2018-Jul-16 03:00N 37°01' W 008°19'0 0.7
2018-Jul-16 02:30N 37°01' W 008°20'1 1.1
2018-Jul-16 02:00N 37°01' W 008°20'3 6.1
2018-Jul-16 01:30N 37°02' W 008°17'3 5.2
2018-Jul-16 01:00N 37°01' W 008°14'3 6.3
2018-Jul-16 00:30N 37°01' W 008°10'  
2018-Jul-13 07:00N 36°59' W 008°07'2 5.0
2018-Jul-13 06:30N 36°56' W 008°07'2 3.7
2018-Jul-13 05:57N 36°55' W 008°10'2 3.7
2018-Jul-13 05:30N 36°54' W 008°08'2 2.7
2018-Jul-13 04:53N 36°55' W 008°10'1 3.1
2018-Jul-13 04:30N 36°56' W 008°09'10 0.4
2018-Jul-12 04:10N 37°01' W 008°20'  
2018-Jul-09 20:15N 36°59' W 008°03'2 6.8
2018-Jul-09 19:57N 37°01' W 008°04'8 0.5
2018-Jul-09 04:03N 37°01' W 008°14'1 3.0
2018-Jul-09 03:45N 37°01' W 008°13'1 3.2
2018-Jul-09 03:27N 37°01' W 008°12'  

Dump ship's entire track history